Time;durP1;ratioP1;P1;durP2;ratioP2;P2;SDS_P1;SDS_P2;PMS_P1;PMS_P2;Temp;Humidity;BMP_temperature;BMP_pressure;BME280_temperature;BME280_humidity;BME280_pressure;Samples;Min_cycle;Max_cycle;Signal;HPM_P1;HPM_P2
2022/09/04 00:02:24;;;;;;;3.33;2.95;;;20.60;91.10;;;;;;5023295;28;20409;-77
2022/09/04 00:05:00;;;;;;;3.03;2.72;;;20.60;91.30;;;;;;5048105;28;20029;-76
2022/09/04 00:07:56;;;;;;;3.33;3.03;;;20.50;90.90;;;;;;5024871;28;20022;-77
2022/09/04 00:10:46;;;;;;;3.65;3.28;;;20.50;91.00;;;;;;5025205;28;20039;-77
2022/09/04 00:13:26;;;;;;;3.45;2.53;;;20.50;90.90;;;;;;4998562;28;20072;-77
2022/09/04 00:15:59;;;;;;;4.28;3.78;;;20.50;90.90;;;;;;5031774;28;20053;-77
2022/09/04 00:18:48;;;;;;;4.68;2.95;;;20.60;91.10;;;;;;5024729;28;20544;-77
2022/09/04 00:21:20;;;;;;;3.20;2.90;;;20.50;91.10;;;;;;5041555;28;20034;-77
2022/09/04 00:24:01;;;;;;;3.60;2.95;;;20.60;91.10;;;;;;5028016;28;20025;-77
2022/09/04 00:26:42;;;;;;;3.72;3.42;;;20.50;91.10;;;;;;5030191;28;20026;-76
2022/09/04 00:29:20;;;;;;;5.38;3.45;;;20.60;91.40;;;;;;5027672;28;20025;-77
2022/09/04 00:32:03;;;;;;;3.55;3.25;;;20.60;91.20;;;;;;5044455;28;20151;-77
2022/09/04 00:34:58;;;;;;;5.35;4.43;;;20.60;91.30;;;;;;5029217;28;20021;-77
2022/09/04 00:37:30;;;;;;;4.55;3.70;;;20.50;91.20;;;;;;5029603;28;20044;-77
2022/09/04 00:40:00;;;;;;;4.38;3.95;;;20.50;91.20;;;;;;5022728;28;20037;-77
2022/09/04 00:42:48;;;;;;;4.13;3.75;;;20.50;91.20;;;;;;5026279;28;20096;-76
2022/09/04 00:45:35;;;;;;;4.10;3.70;;;20.50;91.20;;;;;;5015857;28;20121;-77
2022/09/04 00:48:06;;;;;;;4.28;3.63;;;20.50;91.10;;;;;;5027208;28;20052;-77
2022/09/04 00:50:54;;;;;;;4.88;4.03;;;20.50;91.20;;;;;;5045892;28;20029;-77
2022/09/04 00:53:33;;;;;;;5.22;3.80;;;20.50;91.20;;;;;;5028602;28;20557;-77
2022/09/04 00:56:14;;;;;;;4.28;3.50;;;20.50;91.30;;;;;;5028580;28;20029;-76
2022/09/04 00:59:11;;;;;;;3.65;3.35;;;20.50;91.20;;;;;;5025212;28;20021;-76
2022/09/04 01:01:36;;;;;;;3.88;3.45;;;20.50;91.30;;;;;;5027266;28;20033;-76
2022/09/04 01:04:08;;;;;;;4.32;3.92;;;20.50;91.30;;;;;;5019952;28;20026;-76
2022/09/04 01:06:38;;;;;;;4.20;3.35;;;20.50;91.20;;;;;;5024740;28;20120;-76
2022/09/04 01:09:29;;;;;;;3.67;3.30;;;20.40;91.20;;;;;;5028954;28;20025;-76
2022/09/04 01:12:19;;;;;;;3.92;3.30;;;20.40;91.20;;;;;;5025596;28;20228;-76
2022/09/04 01:15:18;;;;;;;3.63;3.28;;;20.40;91.20;;;;;;5029072;28;20034;-76
2022/09/04 01:18:05;;;;;;;3.67;3.13;;;20.40;91.50;;;;;;5010922;28;20343;-76
2022/09/04 01:20:51;;;;;;;3.15;2.85;;;20.40;91.20;;;;;;5026666;28;20068;-76
2022/09/04 01:23:36;;;;;;;3.30;3.00;;;20.40;91.20;;;;;;5024403;28;20097;-77
2022/09/04 01:26:26;;;;;;;4.25;3.58;;;20.40;91.20;;;;;;5029148;28;20504;-76
2022/09/04 01:29:27;;;;;;;5.50;3.30;;;20.40;91.30;;;;;;5026129;28;20052;-77
2022/09/04 01:32:20;;;;;;;4.75;2.92;;;20.40;91.30;;;;;;5044767;28;20022;-76
2022/09/04 01:34:58;;;;;;;3.78;3.33;;;20.40;91.20;;;;;;5016621;28;20026;-77
2022/09/04 01:38:01;;;;;;;7.75;3.45;;;20.40;91.20;;;;;;5018237;28;20029;-76
2022/09/04 01:40:40;;;;;;;4.45;2.92;;;20.40;91.30;;;;;;5041396;28;20033;-77
2022/09/04 01:43:17;;;;;;;5.35;3.63;;;20.40;91.30;;;;;;5026216;28;20494;-76
2022/09/04 01:45:52;;;;;;;4.05;3.35;;;20.40;91.40;;;;;;5029270;28;20025;-77
2022/09/04 01:48:50;;;;;;;4.72;3.13;;;20.40;91.30;;;;;;5029215;28;20026;-76
2022/09/04 01:51:44;;;;;;;4.55;3.95;;;20.40;91.30;;;;;;5036760;28;20042;-76
2022/09/04 01:55:00;;;;;;;3.35;3.05;;;20.40;91.50;;;;;;5024673;28;20386;-76
2022/09/04 01:57:33;;;;;;;5.25;3.22;;;20.40;91.50;;;;;;5028972;28;20140;-77
2022/09/04 01:59:59;;;;;;;3.45;2.95;;;20.40;91.40;;;;;;5036948;28;20037;-76
2022/09/04 02:02:33;;;;;;;7.15;3.53;;;20.30;91.60;;;;;;5026299;28;20037;-76
2022/09/04 02:05:08;;;;;;;3.45;3.15;;;20.30;91.60;;;;;;5033261;28;20044;-76
2022/09/04 02:07:56;;;;;;;3.92;3.50;;;20.30;91.50;;;;;;5032048;28;20021;-77
2022/09/04 02:10:43;;;;;;;4.28;3.38;;;20.30;91.50;;;;;;5027392;28;20037;-77
2022/09/04 02:13:21;;;;;;;3.97;3.53;;;20.30;91.60;;;;;;5034337;28;20040;-76
2022/09/04 02:16:02;;;;;;;4.05;3.33;;;20.30;91.60;;;;;;5034489;28;20402;-76
2022/09/04 02:18:49;;;;;;;3.85;3.10;;;20.30;91.60;;;;;;5026811;28;20038;-77
2022/09/04 02:21:50;;;;;;;5.10;3.28;;;20.30;91.70;;;;;;5027268;28;20029;-77
2022/09/04 02:24:36;;;;;;;4.57;3.70;;;20.30;91.70;;;;;;5033893;28;20041;-77
2022/09/04 02:27:14;;;;;;;3.88;3.40;;;20.30;91.70;;;;;;5029103;28;20057;-77
2022/09/04 02:29:44;;;;;;;3.20;2.90;;;20.30;91.60;;;;;;5032098;28;20386;-76
2022/09/04 02:32:29;;;;;;;3.13;2.83;;;20.20;91.60;;;;;;5028157;28;20061;-77
2022/09/04 02:35:10;;;;;;;3.78;2.80;;;20.20;91.60;;;;;;5029377;28;20212;-77
2022/09/04 02:37:48;;;;;;;3.92;3.42;;;20.20;91.60;;;;;;5041254;28;20112;-76
2022/09/04 02:40:19;;;;;;;3.08;2.78;;;20.20;91.60;;;;;;5028522;28;20029;-77
2022/09/04 02:43:00;;;;;;;5.00;3.28;;;20.30;91.70;;;;;;5028636;28;20061;-76
2022/09/04 02:45:31;;;;;;;6.07;3.15;;;20.30;91.90;;;;;;5027117;28;20490;-77
2022/09/04 02:48:05;;;;;;;3.55;3.05;;;20.30;91.80;;;;;;5032529;28;20079;-77
2022/09/04 02:51:05;;;;;;;3.63;2.92;;;20.20;91.70;;;;;;5026807;28;20040;-76
2022/09/04 02:53:49;;;;;;;2.90;2.65;;;20.20;91.70;;;;;;5023631;28;20073;-76
2022/09/04 02:56:23;;;;;;;3.30;2.60;;;20.20;91.70;;;;;;5030175;28;20025;-76
2022/09/04 02:58:51;;;;;;;3.67;3.33;;;20.20;92.00;;;;;;5033697;28;20278;-77
2022/09/04 03:01:45;;;;;;;3.15;2.40;;;20.20;91.70;;;;;;5022454;28;20028;-76
2022/09/04 03:04:11;;;;;;;3.38;3.08;;;20.20;91.70;;;;;;5030973;28;20087;-76
2022/09/04 03:06:42;;;;;;;4.13;3.20;;;20.20;91.70;;;;;;5027083;28;20045;-77
2022/09/04 03:09:18;;;;;;;4.57;3.25;;;20.20;91.80;;;;;;5026350;28;20036;-76
2022/09/04 03:12:31;;;;;;;4.15;3.15;;;20.20;91.80;;;;;;5030819;28;20183;-76
2022/09/04 03:15:13;;;;;;;3.80;3.40;;;20.20;91.70;;;;;;5011414;28;20494;-76
2022/09/04 03:17:48;;;;;;;4.03;2.67;;;20.20;91.80;;;;;;5034996;28;20499;-76
2022/09/04 03:20:29;;;;;;;3.50;2.97;;;20.20;91.70;;;;;;5034735;28;20029;-77
2022/09/04 03:23:12;;;;;;;4.38;3.47;;;20.10;91.70;;;;;;5028769;28;20405;-76
2022/09/04 03:25:49;;;;;;;4.57;3.72;;;20.10;91.70;;;;;;5033721;28;20477;-76
2022/09/04 03:28:40;;;;;;;5.43;3.28;;;20.10;91.60;;;;;;5031399;28;20438;-76
2022/09/04 03:31:25;;;;;;;3.33;2.63;;;20.10;91.60;;;;;;5028489;28;20116;-76
2022/09/04 03:34:10;;;;;;;6.07;2.60;;;20.10;91.60;;;;;;5023933;28;20167;-77
2022/09/04 03:36:51;;;;;;;3.03;2.72;;;20.10;91.60;;;;;;5026951;28;20033;-76
2022/09/04 03:39:29;;;;;;;4.25;3.38;;;20.10;91.60;;;;;;5018760;28;20055;-76
2022/09/04 03:42:30;;;;;;;3.55;3.05;;;20.10;91.60;;;;;;5026544;28;20100;-76
2022/09/04 03:45:30;;;;;;;3.28;2.53;;;20.10;91.60;;;;;;5021605;28;20025;-76
2022/09/04 03:48:18;;;;;;;3.13;2.83;;;20.10;91.60;;;;;;5025333;28;20109;-76
2022/09/04 03:50:56;;;;;;;4.03;2.90;;;20.10;91.60;;;;;;5023863;28;20096;-76
2022/09/04 03:53:48;;;;;;;4.70;2.40;;;20.10;91.60;;;;;;5031296;28;20216;-76
2022/09/04 03:56:40;;;;;;;3.55;2.65;;;20.10;91.70;;;;;;5029719;28;20037;-76
2022/09/04 03:59:14;;;;;;;3.30;3.00;;;20.10;91.60;;;;;;5025992;28;20371;-76
2022/09/04 04:01:58;;;;;;;3.47;2.88;;;20.10;91.60;;;;;;5030909;28;20500;-76
2022/09/04 04:04:47;;;;;;;3.58;3.10;;;20.10;91.60;;;;;;5029656;28;20120;-76
2022/09/04 04:07:45;;;;;;;3.17;2.50;;;20.10;91.60;;;;;;5025921;28;20030;-76
2022/09/04 04:10:34;;;;;;;2.67;2.40;;;20.10;91.60;;;;;;5033150;28;20037;-76
2022/09/04 04:13:28;;;;;;;4.15;3.30;;;20.00;91.60;;;;;;5024273;28;20030;-76
2022/09/04 04:16:18;;;;;;;3.08;2.67;;;20.00;91.60;;;;;;5029599;28;20025;-76
2022/09/04 04:19:09;;;;;;;4.03;2.55;;;20.00;91.60;;;;;;5035871;28;20062;-76
2022/09/04 04:21:59;;;;;;;3.33;2.75;;;20.00;91.60;;;;;;5017554;28;20511;-77
2022/09/04 04:24:37;;;;;;;2.60;2.40;;;20.00;91.60;;;;;;5027479;28;20125;-76
2022/09/04 04:27:09;;;;;;;2.83;2.40;;;20.10;91.60;;;;;;5026624;28;20061;-76
2022/09/04 04:30:05;;;;;;;3.35;2.83;;;20.00;91.60;;;;;;5023458;28;20032;-76
2022/09/04 04:32:58;;;;;;;4.00;2.72;;;20.00;91.60;;;;;;5016463;28;20068;-77
2022/09/04 04:35:27;;;;;;;3.85;3.10;;;20.00;91.60;;;;;;5028822;28;20033;-76
2022/09/04 04:38:11;;;;;;;3.13;2.38;;;20.00;91.70;;;;;;5029727;28;20037;-76
2022/09/04 04:41:05;;;;;;;2.90;2.60;;;20.00;91.70;;;;;;5047298;28;20029;-76
2022/09/04 04:43:43;;;;;;;4.07;2.65;;;20.00;91.80;;;;;;5023324;28;20586;-77
2022/09/04 04:46:35;;;;;;;3.42;2.60;;;20.00;91.80;;;;;;5019490;28;20058;-76
2022/09/04 04:49:36;;;;;;;4.18;2.90;;;20.00;91.80;;;;;;5029173;28;20042;-76
2022/09/04 04:52:22;;;;;;;3.22;2.80;;;20.00;91.80;;;;;;5039806;28;20560;-76
2022/09/04 04:55:07;;;;;;;3.50;3.00;;;20.00;91.70;;;;;;5030448;28;20041;-77
2022/09/04 04:58:14;;;;;;;3.80;2.95;;;20.00;91.80;;;;;;5025933;28;20029;-76
2022/09/04 05:00:54;;;;;;;3.33;2.78;;;20.00;91.80;;;;;;5015034;28;20128;-77
2022/09/04 05:03:41;;;;;;;4.22;2.88;;;19.90;91.70;;;;;;5015959;28;20034;-77
2022/09/04 05:06:35;;;;;;;3.97;2.60;;;19.90;91.70;;;;;;5018858;28;20043;-76
2022/09/04 05:09:07;;;;;;;2.60;2.30;;;19.90;91.70;;;;;;5028305;28;20108;-77
2022/09/04 05:11:58;;;;;;;2.92;2.40;;;19.90;91.70;;;;;;5027755;28;20120;-77
2022/09/04 05:14:36;;;;;;;3.55;2.75;;;19.90;91.70;;;;;;5026296;28;20084;-77
2022/09/04 05:17:12;;;;;;;3.80;2.80;;;19.90;91.80;;;;;;5027905;28;20109;-77
2022/09/04 05:20:08;;;;;;;3.13;2.63;;;19.90;91.80;;;;;;5022105;28;20048;-76
2022/09/04 05:22:52;;;;;;;3.95;3.25;;;19.90;91.80;;;;;;5042939;28;20043;-77
2022/09/04 05:25:25;;;;;;;2.92;2.60;;;19.90;91.90;;;;;;5022101;28;20483;-76
2022/09/04 05:28:06;;;;;;;3.17;2.88;;;19.90;92.00;;;;;;5025787;28;20347;-77
2022/09/04 05:31:04;;;;;;;3.25;2.70;;;19.90;91.90;;;;;;5024211;28;20056;-77
2022/09/04 05:33:54;;;;;;;4.10;2.92;;;19.90;91.90;;;;;;5020938;28;20030;-76
2022/09/04 05:36:27;;;;;;;3.83;3.20;;;19.90;92.00;;;;;;5019564;28;20030;-77
2022/09/04 05:39:07;;;;;;;3.30;2.67;;;19.90;92.00;;;;;;5017596;28;20054;-76
2022/09/04 05:41:54;;;;;;;3.50;2.70;;;19.90;92.10;;;;;;5043753;28;20064;-77
2022/09/04 05:44:45;;;;;;;3.63;3.20;;;19.90;92.00;;;;;;5049404;28;20013;-77
2022/09/04 05:47:37;;;;;;;3.20;2.78;;;19.90;92.00;;;;;;5027606;28;20033;-77
2022/09/04 05:50:09;;;;;;;3.42;3.05;;;19.80;91.90;;;;;;5025788;28;20037;-77
2022/09/04 05:52:38;;;;;;;3.67;2.80;;;19.90;92.00;;;;;;5019362;28;20021;-77
2022/09/04 05:55:49;;;;;;;3.60;3.08;;;19.90;92.20;;;;;;5032707;28;20033;-77
2022/09/04 05:58:36;;;;;;;3.90;3.05;;;19.90;92.20;;;;;;5018541;28;20034;-77
2022/09/04 06:01:24;;;;;;;4.22;3.42;;;19.90;92.20;;;;;;5030975;28;20030;-77
2022/09/04 06:04:25;;;;;;;4.43;3.22;;;19.90;92.20;;;;;;5026508;28;20018;-77
2022/09/04 06:07:20;;;;;;;4.10;3.47;;;19.80;92.30;;;;;;5027947;28;20017;-77
2022/09/04 06:09:49;;;;;;;3.33;3.00;;;19.80;92.20;;;;;;5023657;28;20537;-77
2022/09/04 06:12:36;;;;;;;4.03;3.00;;;19.80;92.30;;;;;;5031367;28;20041;-77
2022/09/04 06:15:21;;;;;;;4.28;3.35;;;19.80;92.30;;;;;;5025356;28;20040;-76
2022/09/04 06:18:25;;;;;;;3.78;3.10;;;19.80;92.30;;;;;;5038000;28;20036;-77
2022/09/04 06:20:56;;;;;;;3.55;3.10;;;19.80;92.20;;;;;;5028474;28;20490;-77
2022/09/04 06:23:57;;;;;;;4.88;2.88;;;19.80;92.30;;;;;;5024177;28;20120;-77
2022/09/04 06:26:35;;;;;;;2.92;2.53;;;19.80;92.50;;;;;;5046262;28;20385;-77
2022/09/04 06:29:12;;;;;;;4.72;3.75;;;19.90;92.70;;;;;;5030133;28;20105;-77
2022/09/04 06:31:50;;;;;;;4.15;3.75;;;19.80;92.70;;;;;;5032083;28;20121;-77
2022/09/04 06:34:35;;;;;;;4.60;3.80;;;19.80;92.70;;;;;;5047048;28;20022;-77
2022/09/04 06:37:40;;;;;;;3.80;3.30;;;19.80;92.80;;;;;;5029628;28;20506;-77
2022/09/04 06:40:17;;;;;;;5.20;3.75;;;19.80;92.80;;;;;;5025740;28;20111;-77
2022/09/04 06:42:55;;;;;;;3.40;3.10;;;19.80;92.80;;;;;;5020636;28;20097;-77
2022/09/04 06:45:52;;;;;;;4.32;3.25;;;19.80;92.80;;;;;;5025309;28;20064;-76
2022/09/04 06:48:28;;;;;;;5.88;3.33;;;19.80;92.70;;;;;;5030910;28;20017;-77
2022/09/04 06:51:31;;;;;;;3.90;3.20;;;19.80;92.90;;;;;;5030045;28;20022;-77
2022/09/04 06:54:33;;;;;;;4.13;3.45;;;19.80;92.80;;;;;;5037267;28;21267;-77
2022/09/04 06:57:13;;;;;;;3.63;2.97;;;19.80;92.90;;;;;;5015236;28;20554;-77
2022/09/04 06:59:57;;;;;;;5.28;3.67;;;19.80;93.00;;;;;;5029585;28;20037;-76
2022/09/04 07:02:43;;;;;;;3.67;3.17;;;19.80;93.00;;;;;;5038850;28;20480;-76
2022/09/04 07:05:43;;;;;;;3.67;3.30;;;19.80;93.20;;;;;;5026204;28;20025;-76
2022/09/04 07:08:19;;;;;;;4.93;3.70;;;19.80;93.30;;;;;;5026909;28;20026;-76
2022/09/04 07:11:17;;;;;;;4.95;3.50;;;19.80;93.10;;;;;;5023456;28;20080;-76
2022/09/04 07:14:15;;;;;;;4.38;3.60;;;19.80;93.20;;;;;;5006726;28;20505;-76
2022/09/04 07:16:43;;;;;;;5.55;4.07;;;19.80;93.20;;;;;;5041596;28;20510;-76
2022/09/04 07:19:47;;;;;;;4.93;3.60;;;19.80;93.00;;;;;;5018734;28;20372;-76
2022/09/04 07:22:44;;;;;;;3.70;3.17;;;19.80;93.10;;;;;;5019095;28;20033;-76
2022/09/04 07:25:28;;;;;;;4.32;3.60;;;19.70;92.90;;;;;;5029063;28;20028;-76
2022/09/04 07:28:05;;;;;;;3.60;3.28;;;19.70;92.90;;;;;;5022516;28;20033;-76
2022/09/04 07:30:41;;;;;;;4.43;3.35;;;19.70;92.90;;;;;;5019868;28;20080;-75
2022/09/04 07:33:32;;;;;;;4.45;3.33;;;19.70;92.80;;;;;;5036277;28;20037;-76
2022/09/04 07:36:15;;;;;;;4.15;3.45;;;19.70;92.80;;;;;;5032719;28;20050;-76
2022/09/04 07:38:57;;;;;;;3.23;2.83;;;19.70;93.50;;;;;;5023414;28;20117;-76
2022/09/04 07:41:58;;;;;;;4.85;3.75;;;19.70;92.90;;;;;;5016087;28;20029;-76
2022/09/04 07:45:04;;;;;;;3.90;3.50;;;19.70;92.90;;;;;;4977583;28;20519;-76
2022/09/04 07:47:41;;;;;;;3.20;2.80;;;19.70;92.80;;;;;;5019262;28;20471;-76
2022/09/04 07:50:17;;;;;;;4.80;3.83;;;19.70;92.70;;;;;;5018346;28;20030;-76
2022/09/04 07:53:12;;;;;;;4.40;3.40;;;19.70;92.70;;;;;;5026334;28;20049;-76
2022/09/04 07:55:53;;;;;;;4.22;2.85;;;19.70;92.80;;;;;;5023647;28;20030;-76
2022/09/04 07:59:08;;;;;;;4.32;3.33;;;19.70;92.80;;;;;;5027674;28;20033;-76
2022/09/04 08:01:46;;;;;;;;;;;19.70;92.70;;;;;;5003844;28;20037;-76
2022/09/04 08:04:27;;;;;;;3.35;2.92;;;19.70;92.80;;;;;;5020903;28;19920;-76
2022/09/04 08:07:05;;;;;;;4.35;3.55;;;19.70;92.80;;;;;;5020664;28;20495;-76
2022/09/04 08:09:46;;;;;;;4.07;2.97;;;19.70;92.80;;;;;;5022797;28;20044;-76
2022/09/04 08:13:03;;;;;;;3.75;3.35;;;19.70;93.00;;;;;;5022667;28;20030;-76
2022/09/04 08:15:35;;;;;;;5.50;3.17;;;19.70;93.00;;;;;;4969492;28;20531;-76
2022/09/04 08:18:04;;;;;;;4.25;3.28;;;19.70;92.80;;;;;;4989421;28;20092;-75
2022/09/04 08:20:51;;;;;;;3.53;3.15;;;19.70;93.00;;;;;;5009390;28;20083;-75
2022/09/04 08:23:58;;;;;;;5.57;3.78;;;19.70;92.90;;;;;;5044964;28;20494;-76
2022/09/04 08:27:01;;;;;;;6.75;3.50;;;19.70;93.00;;;;;;5022266;28;20521;-77
2022/09/04 08:29:47;;;;;;;3.97;3.30;;;19.80;93.60;;;;;;5014725;28;20060;-77
2022/09/04 08:32:49;;;;;;;5.32;4.00;;;19.80;93.50;;;;;;5023725;28;20038;-78
2022/09/04 08:35:32;;;;;;;5.45;4.40;;;19.80;93.50;;;;;;5023315;28;20498;-78
2022/09/04 08:38:03;;;;;;;4.07;3.67;;;19.80;93.50;;;;;;5033010;28;20072;-78
2022/09/04 08:41:02;;;;;;;4.45;3.72;;;19.70;93.20;;;;;;5024796;28;20060;-77
2022/09/04 08:43:46;;;;;;;4.90;3.30;;;19.70;93.10;;;;;;5029733;28;20120;-78
2022/09/04 08:46:21;;;;;;;4.22;3.80;;;19.70;93.00;;;;;;5026901;28;20108;-77
2022/09/04 08:48:53;;;;;;;5.00;4.03;;;19.70;93.40;;;;;;5027457;28;20021;-78
2022/09/04 08:51:49;;;;;;;4.38;3.97;;;19.70;93.30;;;;;;5027418;28;20471;-78
2022/09/04 08:54:26;;;;;;;4.38;3.90;;;19.70;93.30;;;;;;5041391;28;20071;-78
2022/09/04 08:57:16;;;;;;;4.80;3.88;;;19.80;93.20;;;;;;5026673;28;20117;-78
2022/09/04 08:59:45;;;;;;;4.57;4.18;;;19.80;93.10;;;;;;5033357;28;20025;-78
2022/09/04 09:02:51;;;;;;;4.35;3.95;;;19.70;93.00;;;;;;5030274;28;20026;-78
2022/09/04 09:05:42;;;;;;;5.72;3.42;;;19.80;93.20;;;;;;5031636;28;20021;-78
2022/09/04 09:08:32;;;;;;;4.40;4.00;;;19.70;93.10;;;;;;5027814;28;20415;-77
2022/09/04 09:11:16;;;;;;;3.92;3.53;;;19.80;93.10;;;;;;5024035;28;20026;-78
2022/09/04 09:14:04;;;;;;;3.65;3.35;;;19.70;93.00;;;;;;5031447;28;20029;-78
2022/09/04 09:17:01;;;;;;;4.00;3.60;;;19.70;93.00;;;;;;5026434;28;20029;-78
2022/09/04 09:19:44;;;;;;;3.90;3.33;;;19.70;92.90;;;;;;5020039;28;20032;-78
2022/09/04 09:22:16;;;;;;;3.90;3.50;;;19.70;93.10;;;;;;5017972;28;20026;-78
2022/09/04 09:25:11;;;;;;;3.42;3.13;;;19.70;92.90;;;;;;5034919;28;20506;-78
2022/09/04 09:28:09;;;;;;;6.47;3.80;;;19.80;93.00;;;;;;5022209;28;20054;-78
2022/09/04 09:31:12;;;;;;;3.50;3.17;;;19.80;93.40;;;;;;5020320;28;20029;-78
2022/09/04 09:33:41;;;;;;;5.72;3.58;;;19.70;93.00;;;;;;5023397;28;20018;-78
2022/09/04 09:36:22;;;;;;;4.38;3.70;;;19.80;93.20;;;;;;5020729;28;20076;-78
2022/09/04 09:38:57;;;;;;;3.97;3.58;;;19.80;93.20;;;;;;5018852;28;20021;-78
2022/09/04 09:42:00;;;;;;;4.18;3.72;;;19.80;93.10;;;;;;5034199;28;20036;-78
2022/09/04 09:44:56;;;;;;;4.75;4.07;;;19.80;93.20;;;;;;5047910;28;20478;-78
2022/09/04 09:47:46;;;;;;;4.90;4.35;;;19.80;93.10;;;;;;5021775;28;20486;-78
2022/09/04 09:50:19;;;;;;;3.50;3.20;;;19.80;93.20;;;;;;5024510;28;20030;-78
2022/09/04 09:53:10;;;;;;;7.15;5.10;;;19.80;93.00;;;;;;5043332;28;20029;-78
2022/09/04 09:55:57;;;;;;;5.03;4.45;;;19.70;93.30;;;;;;5021711;28;20618;-78
2022/09/04 09:58:45;;;;;;;4.97;4.47;;;19.80;93.00;;;;;;5027814;28;20030;-79
2022/09/04 10:01:23;;;;;;;7.47;4.72;;;19.80;93.00;;;;;;5018442;28;20034;-79
2022/09/04 10:04:10;;;;;;;4.72;4.20;;;19.80;93.00;;;;;;5024418;28;20048;-78
2022/09/04 10:06:50;;;;;;;4.85;4.07;;;19.80;93.20;;;;;;5031046;28;20052;-78
2022/09/04 10:09:49;;;;;;;5.25;4.25;;;19.80;93.10;;;;;;5029638;28;20060;-78
2022/09/04 10:12:53;;;;;;;6.82;4.60;;;19.80;93.00;;;;;;5023789;28;20020;-79
2022/09/04 10:15:57;;;;;;;4.78;4.32;;;19.80;93.00;;;;;;5032303;28;20117;-78
2022/09/04 10:18:55;;;;;;;5.85;5.07;;;19.80;93.30;;;;;;5005716;28;20121;-79
2022/09/04 10:21:36;;;;;;;5.55;4.90;;;19.80;93.10;;;;;;5023654;28;20030;-78
2022/09/04 10:24:05;;;;;;;6.78;4.28;;;19.80;93.00;;;;;;5020268;28;20040;-78
2022/09/04 10:27:29;;;;;;;5.10;4.60;;;19.80;93.20;;;;;;5019408;28;20032;-79
2022/09/04 10:30:03;;;;;;;5.25;4.75;;;19.90;93.30;;;;;;5015453;28;20018;-79
2022/09/04 10:32:31;;;;;;;6.65;4.63;;;19.80;93.30;;;;;;5033401;28;20056;-78
2022/09/04 10:35:21;;;;;;;5.88;4.63;;;19.90;93.30;;;;;;5031600;28;20029;-78
2022/09/04 10:37:55;;;;;;;4.90;4.43;;;19.90;93.20;;;;;;5033991;28;20036;-78
2022/09/04 10:40:58;;;;;;;5.38;4.82;;;19.90;93.10;;;;;;5043318;28;20122;-79
2022/09/04 10:43:53;;;;;;;5.07;4.55;;;19.80;93.30;;;;;;5028696;28;20021;-79
2022/09/04 10:46:38;;;;;;;5.20;4.68;;;19.90;93.40;;;;;;5032774;28;20049;-78
2022/09/04 10:49:46;;;;;;;6.32;5.15;;;19.90;93.40;;;;;;5023611;28;20041;-79
2022/09/04 10:52:36;;;;;;;5.10;4.47;;;19.90;93.40;;;;;;5023930;28;20034;-79
2022/09/04 10:55:29;;;;;;;5.18;4.68;;;19.90;93.40;;;;;;5028974;28;20616;-79
2022/09/04 10:58:16;;;;;;;4.93;4.22;;;19.90;93.60;;;;;;5029174;28;20022;-79
2022/09/04 11:01:21;;;;;;;5.47;4.90;;;19.90;93.60;;;;;;5025311;28;20128;-79
2022/09/04 11:04:21;;;;;;;5.28;4.75;;;19.90;93.60;;;;;;5013881;28;20106;-78
2022/09/04 11:07:23;;;;;;;5.88;4.75;;;19.90;93.60;;;;;;4993440;28;20029;-79
2022/09/04 11:10:16;;;;;;;5.13;4.50;;;19.90;93.60;;;;;;4958363;28;20082;-79
2022/09/04 11:13:20;;;;;;;5.10;4.60;;;19.90;93.70;;;;;;5023225;28;20129;-78
2022/09/04 11:16:08;;;;;;;4.80;4.25;;;19.90;93.80;;;;;;5013070;28;20105;-78
2022/09/04 11:18:52;;;;;;;6.00;5.40;;;19.90;93.80;;;;;;5029180;28;20548;-79
2022/09/04 11:21:42;;;;;;;7.95;5.22;;;20.00;93.90;;;;;;5033411;28;20116;-79
2022/09/04 11:24:20;;;;;;;5.32;4.78;;;19.90;93.80;;;;;;5029923;28;20052;-79
2022/09/04 11:26:49;;;;;;;6.75;5.18;;;20.00;93.60;;;;;;5051097;28;20018;-79
2022/09/04 11:29:46;;;;;;;5.10;4.47;;;20.00;93.80;;;;;;5022925;28;20026;-78
2022/09/04 11:32:35;;;;;;;6.55;4.45;;;20.00;93.70;;;;;;5034357;28;20030;-79
2022/09/04 11:35:20;;;;;;;6.43;5.72;;;20.00;93.80;;;;;;5034266;28;20084;-78
2022/09/04 11:37:57;;;;;;;5.72;4.60;;;20.00;93.80;;;;;;5027100;28;20482;-78
2022/09/04 11:40:42;;;;;;;6.63;4.30;;;20.00;93.60;;;;;;5027096;28;20594;-78
2022/09/04 11:43:44;;;;;;;5.22;4.43;;;20.00;93.70;;;;;;5025046;28;20026;-78
2022/09/04 11:46:38;;;;;;;6.57;5.40;;;20.00;93.70;;;;;;5047727;28;20021;-77
2022/09/04 11:49:41;;;;;;;4.55;4.10;;;20.00;93.60;;;;;;5028084;28;20041;-79
2022/09/04 11:52:08;;;;;;;4.90;4.40;;;20.00;94.00;;;;;;5014301;28;20891;-78
2022/09/04 11:55:02;;;;;;;4.88;4.38;;;20.00;94.00;;;;;;5029204;28;20072;-79
2022/09/04 11:57:49;;;;;;;5.00;4.50;;;20.00;93.90;;;;;;5029103;28;20034;-79
2022/09/04 12:00:17;;;;;;;4.93;4.43;;;20.00;93.80;;;;;;5027111;28;20033;-79
2022/09/04 12:02:57;;;;;;;5.75;5.05;;;20.00;93.70;;;;;;5029897;28;20018;-78
2022/09/04 12:05:43;;;;;;;5.38;4.88;;;20.00;93.70;;;;;;5024438;28;20036;-79
2022/09/04 12:08:38;;;;;;;5.45;4.95;;;20.00;93.70;;;;;;5017084;28;20049;-78
2022/09/04 12:11:34;;;;;;;5.50;4.95;;;20.10;93.70;;;;;;5032597;28;20056;-78
2022/09/04 12:14:29;;;;;;;5.50;4.70;;;20.10;93.70;;;;;;5024431;28;20025;-78
2022/09/04 12:17:04;;;;;;;4.35;3.95;;;20.10;93.60;;;;;;5002626;28;20040;-80
2022/09/04 12:19:52;;;;;;;6.68;4.97;;;20.10;93.50;;;;;;5032326;28;20021;-78
2022/09/04 12:22:36;;;;;;;6.00;4.32;;;20.10;93.60;;;;;;5025768;28;20026;-78
2022/09/04 12:25:13;;;;;;;5.68;4.47;;;20.10;93.50;;;;;;5018037;28;20030;-78
2022/09/04 12:28:01;;;;;;;4.63;4.22;;;20.10;93.70;;;;;;5022590;28;20018;-78
2022/09/04 12:31:16;;;;;;;6.70;4.97;;;20.10;93.50;;;;;;5033981;28;20105;-79
2022/09/04 12:34:00;;;;;;;;;;;20.10;93.60;;;;;;5021673;28;20025;-79
2022/09/04 12:36:41;;;;;;;4.82;4.32;;;20.10;93.40;;;;;;5029378;28;19905;-78
2022/09/04 12:39:25;;;;;;;5.05;4.55;;;20.10;93.30;;;;;;5026458;28;20033;-79
2022/09/04 12:42:07;;;;;;;5.28;4.45;;;20.10;93.30;;;;;;5032623;28;20024;-79
2022/09/04 12:44:50;;;;;;;4.63;4.07;;;20.10;93.30;;;;;;5033769;28;20049;-78
2022/09/04 12:47:44;;;;;;;4.80;4.38;;;20.10;93.20;;;;;;5020396;28;20061;-79
2022/09/04 12:50:28;;;;;;;4.85;4.35;;;20.10;93.20;;;;;;5033566;28;20564;-78
2022/09/04 12:53:24;;;;;;;4.43;4.03;;;20.10;93.20;;;;;;5026162;28;20041;-78
2022/09/04 12:56:05;;;;;;;4.30;3.88;;;20.10;93.20;;;;;;5034001;28;20029;-78
2022/09/04 12:58:51;;;;;;;5.05;4.25;;;20.10;93.30;;;;;;5018194;28;20030;-79
2022/09/04 13:01:40;;;;;;;6.32;3.97;;;20.10;93.30;;;;;;5024888;28;20192;-78
2022/09/04 13:05:01;;;;;;;4.15;3.70;;;20.10;93.30;;;;;;5030541;28;20079;-78
2022/09/04 13:07:45;;;;;;;5.18;3.47;;;20.10;93.30;;;;;;5019488;28;20041;-78
2022/09/04 13:10:37;;;;;;;4.05;3.65;;;20.10;93.20;;;;;;5015054;28;20037;-78
2022/09/04 13:13:12;;;;;;;4.88;3.75;;;20.20;93.20;;;;;;5015952;28;20490;-79
2022/09/04 13:15:52;;;;;;;5.57;3.60;;;20.10;93.20;;;;;;5024003;28;20439;-79
2022/09/04 13:18:48;;;;;;;3.72;3.33;;;20.10;93.20;;;;;;5039668;28;20492;-78
2022/09/04 13:21:25;;;;;;;4.57;3.92;;;20.20;93.20;;;;;;5033821;28;20453;-79
2022/09/04 13:23:56;;;;;;;4.00;3.33;;;20.20;93.20;;;;;;5019741;28;20026;-79
2022/09/04 13:26:37;;;;;;;4.07;3.65;;;20.20;93.20;;;;;;5028716;28;20026;-78
2022/09/04 13:29:15;;;;;;;6.90;3.67;;;20.20;93.20;;;;;;5040356;28;20021;-78
2022/09/04 13:31:46;;;;;;;4.18;3.67;;;20.20;93.20;;;;;;5048436;28;20025;-78
2022/09/04 13:34:17;;;;;;;4.55;4.03;;;20.20;93.20;;;;;;5024743;28;20489;-79
2022/09/04 13:37:09;;;;;;;4.28;3.50;;;20.20;93.20;;;;;;5029137;28;20033;-78
2022/09/04 13:39:59;;;;;;;5.40;4.43;;;20.20;93.10;;;;;;5037728;28;20032;-78
2022/09/04 13:42:53;;;;;;;4.10;3.70;;;20.20;93.20;;;;;;5030661;28;20040;-79
2022/09/04 13:45:24;;;;;;;4.40;4.00;;;20.20;93.20;;;;;;5031873;28;20461;-79
2022/09/04 13:48:18;;;;;;;4.28;3.60;;;20.30;93.40;;;;;;5025267;28;20685;-79
2022/09/04 13:50:59;;;;;;;5.07;3.92;;;20.30;93.30;;;;;;5034678;28;20062;-78
2022/09/04 13:53:34;;;;;;;5.22;4.72;;;20.30;93.20;;;;;;5027741;28;20033;-78
2022/09/04 13:56:08;;;;;;;4.80;3.95;;;20.30;93.30;;;;;;5025529;28;20026;-78
2022/09/04 13:58:45;;;;;;;4.43;4.03;;;20.30;93.30;;;;;;5029597;28;20048;-78
2022/09/04 14:01:15;;;;;;;4.75;3.97;;;20.30;93.20;;;;;;5032917;28;20052;-78
2022/09/04 14:03:47;;;;;;;5.07;4.10;;;20.30;93.20;;;;;;5026032;28;20116;-79
2022/09/04 14:06:16;;;;;;;6.70;4.47;;;20.30;93.30;;;;;;5027762;28;20025;-79
2022/09/04 14:08:44;;;;;;;4.50;4.10;;;20.30;93.20;;;;;;5020422;28;20021;-79
2022/09/04 14:11:31;;;;;;;5.78;4.22;;;20.30;93.10;;;;;;5025687;28;20037;-78
2022/09/04 14:14:22;;;;;;;4.55;4.10;;;20.30;93.20;;;;;;5025511;28;20052;-78
2022/09/04 14:16:51;;;;;;;5.03;4.18;;;20.30;93.20;;;;;;5039175;28;20022;-78
2022/09/04 14:19:31;;;;;;;5.15;4.30;;;20.30;93.10;;;;;;5032985;28;20486;-79
2022/09/04 14:22:16;;;;;;;4.88;4.43;;;20.30;93.10;;;;;;5028091;28;20034;-79
2022/09/04 14:25:14;;;;;;;4.85;4.10;;;20.40;93.10;;;;;;5035201;28;20117;-79